sensor_id;sensor_type;location;lat;lon;timestamp;pressure;altitude;pressure_sealevel;temperature
68440;BMP180;55421;51.600;5.718;2023-01-13T00:01:24;164264.00;;;9.30
68440;BMP180;55421;51.600;5.718;2023-01-13T00:03:51;164268.00;;;9.32
68440;BMP180;55421;51.600;5.718;2023-01-13T00:06:22;164269.00;;;9.38
68440;BMP180;55421;51.600;5.718;2023-01-13T00:08:52;164257.00;;;9.30
68440;BMP180;55421;51.600;5.718;2023-01-13T00:11:20;164244.20;;;9.30
68440;BMP180;55421;51.600;5.718;2023-01-13T00:13:47;164234.59;;;9.30
68440;BMP180;55421;51.600;5.718;2023-01-13T00:16:16;164237.00;;;9.30
68440;BMP180;55421;51.600;5.718;2023-01-13T00:18:51;164235.80;;;9.30
68440;BMP180;55421;51.600;5.718;2023-01-13T00:21:23;164239.41;;;9.30
68440;BMP180;55421;51.600;5.718;2023-01-13T00:23:53;164227.00;;;9.22
68440;BMP180;55421;51.600;5.718;2023-01-13T00:26:25;164202.59;;;9.20
68440;BMP180;55421;51.600;5.718;2023-01-13T00:28:57;164183.41;;;9.20
68440;BMP180;55421;51.600;5.718;2023-01-13T00:31:25;164166.59;;;9.10
68440;BMP180;55421;51.600;5.718;2023-01-13T00:33:52;164147.00;;;9.10
68440;BMP180;55421;51.600;5.718;2023-01-13T00:36:19;164128.80;;;9.00
68440;BMP180;55421;51.600;5.718;2023-01-13T00:38:46;164100.80;;;9.00
68440;BMP180;55421;51.600;5.718;2023-01-13T00:41:17;164085.20;;;8.90
68440;BMP180;55421;51.600;5.718;2023-01-13T00:43:45;164072.41;;;8.90
68440;BMP180;55421;51.600;5.718;2023-01-13T00:46:16;164066.00;;;8.90
68440;BMP180;55421;51.600;5.718;2023-01-13T00:48:43;164045.59;;;8.80
68440;BMP180;55421;51.600;5.718;2023-01-13T00:51:17;164022.41;;;8.80
68440;BMP180;55421;51.600;5.718;2023-01-13T00:53:47;163999.41;;;8.70
68440;BMP180;55421;51.600;5.718;2023-01-13T00:56:17;163986.59;;;8.70
68440;BMP180;55421;51.600;5.718;2023-01-13T00:58:45;163983.00;;;8.70
68440;BMP180;55421;51.600;5.718;2023-01-13T01:01:16;163971.41;;;8.70
68440;BMP180;55421;51.600;5.718;2023-01-13T01:03:46;163954.59;;;8.60
68440;BMP180;55421;51.600;5.718;2023-01-13T01:06:18;163946.20;;;8.60
68440;BMP180;55421;51.600;5.718;2023-01-13T01:08:45;163931.41;;;8.60
68440;BMP180;55421;51.600;5.718;2023-01-13T01:11:16;163930.59;;;8.58
68440;BMP180;55421;51.600;5.718;2023-01-13T01:13:44;163924.20;;;8.54
68440;BMP180;55421;51.600;5.718;2023-01-13T01:16:15;163924.20;;;8.54
68440;BMP180;55421;51.600;5.718;2023-01-13T01:18:46;163920.20;;;8.50
68440;BMP180;55421;51.600;5.718;2023-01-13T01:21:14;163915.00;;;8.50
68440;BMP180;55421;51.600;5.718;2023-01-13T01:23:41;163913.00;;;8.50
68440;BMP180;55421;51.600;5.718;2023-01-13T01:26:21;163930.59;;;8.60
68440;BMP180;55421;51.600;5.718;2023-01-13T01:28:48;163939.80;;;8.60
68440;BMP180;55421;51.600;5.718;2023-01-13T01:31:24;163943.00;;;8.60
68440;BMP180;55421;51.600;5.718;2023-01-13T01:33:53;163943.00;;;8.60
68440;BMP180;55421;51.600;5.718;2023-01-13T01:36:22;163957.00;;;8.60
68440;BMP180;55421;51.600;5.718;2023-01-13T01:38:49;163970.20;;;8.70
68440;BMP180;55421;51.600;5.718;2023-01-13T01:41:22;163977.41;;;8.70
68440;BMP180;55421;51.600;5.718;2023-01-13T01:43:51;163972.59;;;8.68
68440;BMP180;55421;51.600;5.718;2023-01-13T01:46:36;163961.80;;;8.60
68440;BMP180;55421;51.600;5.718;2023-01-13T01:49:16;163954.59;;;8.60
68440;BMP180;55421;51.600;5.718;2023-01-13T01:52:08;163953.41;;;8.60
68440;BMP180;55421;51.600;5.718;2023-01-13T01:54:46;163947.41;;;8.60
68440;BMP180;55421;51.600;5.718;2023-01-13T01:57:37;163929.41;;;8.60
68440;BMP180;55421;51.600;5.718;2023-01-13T02:00:05;163922.59;;;8.50
68440;BMP180;55421;51.600;5.718;2023-01-13T02:02:32;163909.80;;;8.50
68440;BMP180;55421;51.600;5.718;2023-01-13T02:04:59;163899.80;;;8.50
68440;BMP180;55421;51.600;5.718;2023-01-13T02:07:30;163896.59;;;8.50
68440;BMP180;55421;51.600;5.718;2023-01-13T02:10:04;163878.59;;;8.46
68440;BMP180;55421;51.600;5.718;2023-01-13T02:12:32;163856.00;;;8.40
68440;BMP180;55421;51.600;5.718;2023-01-13T02:15:13;163856.41;;;8.40
68440;BMP180;55421;51.600;5.718;2023-01-13T02:18:14;163848.80;;;8.40
68440;BMP180;55421;51.600;5.718;2023-01-13T02:20:57;163126.80;;;8.40
68440;BMP180;55421;51.600;5.718;2023-01-13T02:27:43;147252.20;;;8.28
68440;BMP180;55421;51.600;5.718;2023-01-13T02:30:41;138010.59;;;8.20
68440;BMP180;55421;51.600;5.718;2023-01-13T02:34:04;124758.80;;;8.20
68440;BMP180;55421;51.600;5.718;2023-01-13T02:36:49;116360.60;;;8.12
68440;BMP180;55421;51.600;5.718;2023-01-13T02:39:35;115007.00;;;8.10
68440;BMP180;55421;51.600;5.718;2023-01-13T02:42:13;119505.20;;;8.10
68440;BMP180;55421;51.600;5.718;2023-01-13T02:45:18;120505.20;;;8.00
68440;BMP180;55421;51.600;5.718;2023-01-13T02:47:50;122692.20;;;8.00
68440;BMP180;55421;51.600;5.718;2023-01-13T02:50:33;123095.40;;;8.00
68440;BMP180;55421;51.600;5.718;2023-01-13T02:53:07;125321.00;;;8.00
68440;BMP180;55421;51.600;5.718;2023-01-13T02:55:48;125342.40;;;8.00
68440;BMP180;55421;51.600;5.718;2023-01-13T02:58:22;127106.20;;;7.94
68440;BMP180;55421;51.600;5.718;2023-01-13T03:00:49;129690.00;;;8.00
68440;BMP180;55421;51.600;5.718;2023-01-13T03:03:16;127806.40;;;8.00
68440;BMP180;55421;51.600;5.718;2023-01-13T03:05:45;128640.00;;;8.00
68440;BMP180;55421;51.600;5.718;2023-01-13T03:11:03;132887.41;;;8.10
68440;BMP180;55421;51.600;5.718;2023-01-13T03:25:27;137482.41;;;8.20
68440;BMP180;55421;51.600;5.718;2023-01-13T03:28:04;137509.41;;;8.20
68440;BMP180;55421;51.600;5.718;2023-01-13T03:30:43;134054.00;;;8.20
68440;BMP180;55421;51.600;5.718;2023-01-13T03:33:20;134645.59;;;8.20
68440;BMP180;55421;51.600;5.718;2023-01-13T03:35:52;136900.20;;;8.20
68440;BMP180;55421;51.600;5.718;2023-01-13T03:38:29;135761.59;;;8.30
68440;BMP180;55421;51.600;5.718;2023-01-13T03:41:04;132856.20;;;8.30
68440;BMP180;55421;51.600;5.718;2023-01-13T03:43:38;129962.00;;;8.30
68440;BMP180;55421;51.600;5.718;2023-01-13T03:50:17;120777.00;;;8.30
68440;BMP180;55421;51.600;5.718;2023-01-13T03:52:47;118512.20;;;8.30
68440;BMP180;55421;51.600;5.718;2023-01-13T03:55:20;111191.20;;;8.30
68440;BMP180;55421;51.600;5.718;2023-01-13T03:57:58;106318.20;;;8.30
68440;BMP180;55421;51.600;5.718;2023-01-13T04:00:37;89887.80;;;8.30
68440;BMP180;55421;51.600;5.718;2023-01-13T04:03:14;80180.20;;;8.32
68440;BMP180;55421;51.600;5.718;2023-01-13T04:05:58;74024.20;;;8.30
68440;BMP180;55421;51.600;5.718;2023-01-13T04:08:28;78159.80;;;8.32
68440;BMP180;55421;51.600;5.718;2023-01-13T04:13:36;81669.40;;;8.30
68440;BMP180;55421;51.600;5.718;2023-01-13T04:16:06;83047.40;;;8.30
68440;BMP180;55421;51.600;5.718;2023-01-13T04:18:37;77789.20;;;8.30
68440;BMP180;55421;51.600;5.718;2023-01-13T04:21:06;81256.40;;;8.30
68440;BMP180;55421;51.600;5.718;2023-01-13T04:23:32;83355.00;;;8.30
68440;BMP180;55421;51.600;5.718;2023-01-13T04:25:59;84606.80;;;8.30
68440;BMP180;55421;51.600;5.718;2023-01-13T04:28:26;92511.20;;;8.24
68440;BMP180;55421;51.600;5.718;2023-01-13T04:30:54;89598.40;;;8.20
68440;BMP180;55421;51.600;5.718;2023-01-13T04:33:20;94188.60;;;8.20
68440;BMP180;55421;51.600;5.718;2023-01-13T04:35:47;98349.00;;;8.20
68440;BMP180;55421;51.600;5.718;2023-01-13T04:38:19;104300.60;;;8.14
68440;BMP180;55421;51.600;5.718;2023-01-13T04:40:46;111924.80;;;8.10
68440;BMP180;55421;51.600;5.718;2023-01-13T04:43:13;115864.60;;;8.10
68440;BMP180;55421;51.600;5.718;2023-01-13T04:45:42;120597.80;;;8.08
68440;BMP180;55421;51.600;5.718;2023-01-13T04:48:09;132278.80;;;8.04
68440;BMP180;55421;51.600;5.718;2023-01-13T04:50:35;134441.00;;;8.04
68440;BMP180;55421;51.600;5.718;2023-01-13T04:53:02;139247.41;;;8.00
68440;BMP180;55421;51.600;5.718;2023-01-13T04:55:28;148276.59;;;8.00
68440;BMP180;55421;51.600;5.718;2023-01-13T04:58:10;153692.80;;;8.00
68440;BMP180;55421;51.600;5.718;2023-01-13T05:00:37;155826.20;;;8.00
68440;BMP180;55421;51.600;5.718;2023-01-13T05:03:04;158289.20;;;8.02
68440;BMP180;55421;51.600;5.718;2023-01-13T05:05:31;159402.80;;;8.00
68440;BMP180;55421;51.600;5.718;2023-01-13T05:07:57;161698.20;;;7.98
68440;BMP180;55421;51.600;5.718;2023-01-13T05:10:25;162927.00;;;7.90
68440;BMP180;55421;51.600;5.718;2023-01-13T05:12:51;163579.80;;;7.90
68440;BMP180;55421;51.600;5.718;2023-01-13T05:15:39;163617.41;;;7.90
68440;BMP180;55421;51.600;5.718;2023-01-13T05:18:25;163624.41;;;7.88
68440;BMP180;55421;51.600;5.718;2023-01-13T05:20:52;163613.59;;;7.80
68440;BMP180;55421;51.600;5.718;2023-01-13T05:23:18;163597.20;;;7.80
68440;BMP180;55421;51.600;5.718;2023-01-13T05:26:04;163585.59;;;7.80
68440;BMP180;55421;51.600;5.718;2023-01-13T05:28:33;163578.41;;;7.80
68440;BMP180;55421;51.600;5.718;2023-01-13T05:31:01;163576.00;;;7.80
68440;BMP180;55421;51.600;5.718;2023-01-13T05:33:27;163564.00;;;7.72
68440;BMP180;55421;51.600;5.718;2023-01-13T05:35:53;163556.41;;;7.70
68440;BMP180;55421;51.600;5.718;2023-01-13T05:38:20;163546.00;;;7.70
68440;BMP180;55421;51.600;5.718;2023-01-13T05:40:46;163544.41;;;7.70
68440;BMP180;55421;51.600;5.718;2023-01-13T05:43:32;163537.20;;;7.68
68440;BMP180;55421;51.600;5.718;2023-01-13T05:46:06;163536.20;;;7.60
68440;BMP180;55421;51.600;5.718;2023-01-13T05:48:37;163535.00;;;7.62
68440;BMP180;55421;51.600;5.718;2023-01-13T05:51:07;163527.41;;;7.60
68440;BMP180;55421;51.600;5.718;2023-01-13T05:53:34;163527.41;;;7.60
68440;BMP180;55421;51.600;5.718;2023-01-13T05:56:06;163539.20;;;7.68
68440;BMP180;55421;51.600;5.718;2023-01-13T05:58:33;163554.00;;;7.70
68440;BMP180;55421;51.600;5.718;2023-01-13T06:01:06;163561.59;;;7.70
68440;BMP180;55421;51.600;5.718;2023-01-13T06:03:34;163554.80;;;7.70
68440;BMP180;55421;51.600;5.718;2023-01-13T06:06:02;163550.00;;;7.70
68440;BMP180;55421;51.600;5.718;2023-01-13T06:08:30;163533.20;;;7.68
68440;BMP180;55421;51.600;5.718;2023-01-13T06:10:57;163528.41;;;7.60
68440;BMP180;55421;51.600;5.718;2023-01-13T06:13:23;163518.20;;;7.60
68440;BMP180;55421;51.600;5.718;2023-01-13T06:15:50;163505.41;;;7.60
68440;BMP180;55421;51.600;5.718;2023-01-13T06:18:17;163496.59;;;7.56
68440;BMP180;55421;51.600;5.718;2023-01-13T06:20:45;163479.80;;;7.50
68440;BMP180;55421;51.600;5.718;2023-01-13T06:23:12;163470.20;;;7.50
68440;BMP180;55421;51.600;5.718;2023-01-13T06:26:21;163469.00;;;7.50
68440;BMP180;55421;51.600;5.718;2023-01-13T06:28:28;163461.80;;;7.50
68440;BMP180;55421;51.600;5.718;2023-01-13T06:30:59;163447.00;;;7.48
68440;BMP180;55421;51.600;5.718;2023-01-13T06:33:35;163435.00;;;7.40
68440;BMP180;55421;51.600;5.718;2023-01-13T06:36:12;163424.59;;;7.40
68440;BMP180;55421;51.600;5.718;2023-01-13T06:38:45;163407.00;;;7.36
68440;BMP180;55421;51.600;5.718;2023-01-13T06:41:20;163411.80;;;7.40
68440;BMP180;55421;51.600;5.718;2023-01-13T06:44:06;163409.41;;;7.36
68440;BMP180;55421;51.600;5.718;2023-01-13T06:46:33;163401.80;;;7.30
68440;BMP180;55421;51.600;5.718;2023-01-13T06:49:00;163386.59;;;7.30
68440;BMP180;55421;51.600;5.718;2023-01-13T06:51:26;163380.00;;;7.30
68440;BMP180;55421;51.600;5.718;2023-01-13T06:53:53;163383.59;;;7.30
68440;BMP180;55421;51.600;5.718;2023-01-13T06:56:20;163381.20;;;7.30
68440;BMP180;55421;51.600;5.718;2023-01-13T06:58:46;163385.41;;;7.30
68440;BMP180;55421;51.600;5.718;2023-01-13T07:01:12;163359.59;;;7.30
68440;BMP180;55421;51.600;5.718;2023-01-13T07:03:39;163326.20;;;7.28
68440;BMP180;55421;51.600;5.718;2023-01-13T07:06:06;163246.20;;;7.26
68440;BMP180;55421;51.600;5.718;2023-01-13T07:08:33;162930.41;;;7.28
68440;BMP180;55421;51.600;5.718;2023-01-13T07:11:02;162388.20;;;7.20
68440;BMP180;55421;51.600;5.718;2023-01-13T07:13:29;161362.00;;;7.20
68440;BMP180;55421;51.600;5.718;2023-01-13T07:16:14;160504.80;;;7.20
68440;BMP180;55421;51.600;5.718;2023-01-13T07:18:40;159677.00;;;7.20
68440;BMP180;55421;51.600;5.718;2023-01-13T07:21:10;157383.00;;;7.20
68440;BMP180;55421;51.600;5.718;2023-01-13T07:23:40;155559.20;;;7.22
68440;BMP180;55421;51.600;5.718;2023-01-13T07:26:09;152280.80;;;7.30
68440;BMP180;55421;51.600;5.718;2023-01-13T07:28:37;150641.41;;;7.30
68440;BMP180;55421;51.600;5.718;2023-01-13T07:31:04;145634.80;;;7.30
68440;BMP180;55421;51.600;5.718;2023-01-13T07:33:31;140439.80;;;7.30
68440;BMP180;55421;51.600;5.718;2023-01-13T07:36:02;137024.59;;;7.30
68440;BMP180;55421;51.600;5.718;2023-01-13T07:38:29;133948.80;;;7.30
68440;BMP180;55421;51.600;5.718;2023-01-13T07:40:56;131518.00;;;7.30
68440;BMP180;55421;51.600;5.718;2023-01-13T07:43:23;127722.60;;;7.30
68440;BMP180;55421;51.600;5.718;2023-01-13T07:46:04;124050.60;;;7.30
68440;BMP180;55421;51.600;5.718;2023-01-13T07:48:33;117955.80;;;7.20
68440;BMP180;55421;51.600;5.718;2023-01-13T07:51:06;114090.40;;;7.20
68440;BMP180;55421;51.600;5.718;2023-01-13T07:53:35;110784.00;;;7.20
68440;BMP180;55421;51.600;5.718;2023-01-13T07:56:04;112307.60;;;7.20
68440;BMP180;55421;51.600;5.718;2023-01-13T07:58:33;112567.40;;;7.20
68440;BMP180;55421;51.600;5.718;2023-01-13T08:01:10;109338.60;;;7.20
68440;BMP180;55421;51.600;5.718;2023-01-13T08:03:39;109420.60;;;7.20
68440;BMP180;55421;51.600;5.718;2023-01-13T08:06:06;108119.20;;;7.20
68440;BMP180;55421;51.600;5.718;2023-01-13T08:08:32;104777.20;;;7.20
68440;BMP180;55421;51.600;5.718;2023-01-13T08:11:01;103354.40;;;7.20
68440;BMP180;55421;51.600;5.718;2023-01-13T08:13:28;103814.40;;;7.28
68440;BMP180;55421;51.600;5.718;2023-01-13T08:16:02;99130.80;;;7.24
68440;BMP180;55421;51.600;5.718;2023-01-13T08:18:31;100082.00;;;7.30
68440;BMP180;55421;51.600;5.718;2023-01-13T08:21:02;101822.40;;;7.30
68440;BMP180;55421;51.600;5.718;2023-01-13T08:23:29;102836.60;;;7.30
68440;BMP180;55421;51.600;5.718;2023-01-13T08:26:10;102424.60;;;7.30
68440;BMP180;55421;51.600;5.718;2023-01-13T08:28:37;103135.80;;;7.30
68440;BMP180;55421;51.600;5.718;2023-01-13T08:31:11;104010.80;;;7.34
68440;BMP180;55421;51.600;5.718;2023-01-13T08:33:38;102302.80;;;7.40
68440;BMP180;55421;51.600;5.718;2023-01-13T08:36:08;107316.20;;;7.40
68440;BMP180;55421;51.600;5.718;2023-01-13T08:38:36;104838.00;;;7.40
68440;BMP180;55421;51.600;5.718;2023-01-13T08:41:11;106901.40;;;7.40
68440;BMP180;55421;51.600;5.718;2023-01-13T08:43:38;110883.20;;;7.40
68440;BMP180;55421;51.600;5.718;2023-01-13T08:46:05;113409.20;;;7.46
68440;BMP180;55421;51.600;5.718;2023-01-13T08:48:32;116958.20;;;7.50
68440;BMP180;55421;51.600;5.718;2023-01-13T08:51:07;117709.20;;;7.50
68440;BMP180;55421;51.600;5.718;2023-01-13T08:53:37;118982.60;;;7.50
68440;BMP180;55421;51.600;5.718;2023-01-13T08:56:07;117182.80;;;7.50
68440;BMP180;55421;51.600;5.718;2023-01-13T08:58:38;117552.40;;;7.60
68440;BMP180;55421;51.600;5.718;2023-01-13T09:01:06;116455.80;;;7.60
68440;BMP180;55421;51.600;5.718;2023-01-13T09:03:33;117991.20;;;7.60
68440;BMP180;55421;51.600;5.718;2023-01-13T09:06:00;119524.80;;;7.62
68440;BMP180;55421;51.600;5.718;2023-01-13T09:08:26;119979.40;;;7.66
68440;BMP180;55421;51.600;5.718;2023-01-13T09:10:53;118949.40;;;7.70
68440;BMP180;55421;51.600;5.718;2023-01-13T09:13:19;118325.20;;;7.70
68440;BMP180;55421;51.600;5.718;2023-01-13T09:15:46;119249.20;;;7.80
68440;BMP180;55421;51.600;5.718;2023-01-13T09:18:13;120762.00;;;7.80
68440;BMP180;55421;51.600;5.718;2023-01-13T09:20:40;123382.60;;;7.90
68440;BMP180;55421;51.600;5.718;2023-01-13T09:23:07;124709.80;;;7.90
68440;BMP180;55421;51.600;5.718;2023-01-13T09:25:33;124644.60;;;8.04
68440;BMP180;55421;51.600;5.718;2023-01-13T09:28:01;128553.80;;;8.20
68440;BMP180;55421;51.600;5.718;2023-01-13T09:30:30;129225.00;;;8.30
68440;BMP180;55421;51.600;5.718;2023-01-13T09:32:57;129315.20;;;8.40
68440;BMP180;55421;51.600;5.718;2023-01-13T09:35:43;132162.80;;;8.50
68440;BMP180;55421;51.600;5.718;2023-01-13T09:38:09;127659.40;;;8.60
68440;BMP180;55421;51.600;5.718;2023-01-13T09:40:38;128775.40;;;8.62
68440;BMP180;55421;51.600;5.718;2023-01-13T09:43:22;128794.20;;;8.70
68440;BMP180;55421;51.600;5.718;2023-01-13T09:46:18;133238.80;;;8.70
68440;BMP180;55421;51.600;5.718;2023-01-13T09:49:04;134206.41;;;8.70
68440;BMP180;55421;51.600;5.718;2023-01-13T09:51:39;133779.00;;;8.60
68440;BMP180;55421;51.600;5.718;2023-01-13T09:54:15;128690.20;;;8.60
68440;BMP180;55421;51.600;5.718;2023-01-13T09:56:42;132993.20;;;8.52
68440;BMP180;55421;51.600;5.718;2023-01-13T09:59:10;136013.59;;;8.50
68440;BMP180;55421;51.600;5.718;2023-01-13T10:01:55;139213.41;;;8.50
68440;BMP180;55421;51.600;5.718;2023-01-13T10:04:25;142639.80;;;8.50
68440;BMP180;55421;51.600;5.718;2023-01-13T10:06:57;144344.00;;;8.46
68440;BMP180;55421;51.600;5.718;2023-01-13T10:09:37;147047.80;;;8.40
68440;BMP180;55421;51.600;5.718;2023-01-13T10:12:17;150811.00;;;8.30
68440;BMP180;55421;51.600;5.718;2023-01-13T10:15:03;154212.00;;;8.30
68440;BMP180;55421;51.600;5.718;2023-01-13T10:17:57;155601.41;;;8.24
68440;BMP180;55421;51.600;5.718;2023-01-13T10:20:43;156813.20;;;8.30
68440;BMP180;55421;51.600;5.718;2023-01-13T10:23:35;158257.20;;;8.30
68440;BMP180;55421;51.600;5.718;2023-01-13T10:26:22;159119.59;;;8.30
68440;BMP180;55421;51.600;5.718;2023-01-13T10:28:53;159769.59;;;8.30
68440;BMP180;55421;51.600;5.718;2023-01-13T10:31:21;160306.20;;;8.40
68440;BMP180;55421;51.600;5.718;2023-01-13T10:34:01;161276.80;;;8.32
68440;BMP180;55421;51.600;5.718;2023-01-13T10:36:29;162425.00;;;8.30
68440;BMP180;55421;51.600;5.718;2023-01-13T10:39:09;163188.80;;;8.20
68440;BMP180;55421;51.600;5.718;2023-01-13T10:41:39;163700.00;;;8.18
68440;BMP180;55421;51.600;5.718;2023-01-13T10:44:16;163736.20;;;8.10
68440;BMP180;55421;51.600;5.718;2023-01-13T10:46:55;163723.80;;;8.10
68440;BMP180;55421;51.600;5.718;2023-01-13T10:49:34;163707.41;;;8.06
68440;BMP180;55421;51.600;5.718;2023-01-13T10:52:23;163701.41;;;8.02
68440;BMP180;55421;51.600;5.718;2023-01-13T10:54:54;163688.59;;;8.00
68440;BMP180;55421;51.600;5.718;2023-01-13T10:57:24;163677.80;;;8.00
68440;BMP180;55421;51.600;5.718;2023-01-13T10:59:53;163661.80;;;7.90
68440;BMP180;55421;51.600;5.718;2023-01-13T11:02:28;163646.20;;;7.90
68440;BMP180;55421;51.600;5.718;2023-01-13T11:07:49;163652.20;;;7.90
68440;BMP180;55421;51.600;5.718;2023-01-13T11:10:25;163657.00;;;7.90
68440;BMP180;55421;51.600;5.718;2023-01-13T11:13:20;163661.80;;;7.90
68440;BMP180;55421;51.600;5.718;2023-01-13T11:16:03;163672.20;;;7.98
68440;BMP180;55421;51.600;5.718;2023-01-13T11:18:46;163683.80;;;8.00
68440;BMP180;55421;51.600;5.718;2023-01-13T11:21:37;163683.80;;;8.00
68440;BMP180;55421;51.600;5.718;2023-01-13T11:24:12;163683.80;;;8.00
68440;BMP180;55421;51.600;5.718;2023-01-13T11:32:19;163705.80;;;8.00
68440;BMP180;55421;51.600;5.718;2023-01-13T11:34:52;163699.41;;;8.00
68440;BMP180;55421;51.600;5.718;2023-01-13T11:37:27;163702.20;;;8.00
68440;BMP180;55421;51.600;5.718;2023-01-13T11:40:23;163714.20;;;8.08
68440;BMP180;55421;51.600;5.718;2023-01-13T11:43:23;163734.59;;;8.10
68440;BMP180;55421;51.600;5.718;2023-01-13T11:45:57;163754.20;;;8.12
68440;BMP180;55421;51.600;5.718;2023-01-13T11:48:31;163751.80;;;8.18
68440;BMP180;55421;51.600;5.718;2023-01-13T11:51:18;163759.00;;;8.20
68440;BMP180;55421;51.600;5.718;2023-01-13T11:59:52;163814.00;;;8.30
68440;BMP180;55421;51.600;5.718;2023-01-13T12:02:45;163831.59;;;8.40
68440;BMP180;55421;51.600;5.718;2023-01-13T12:05:38;163855.00;;;8.40
68440;BMP180;55421;51.600;5.718;2023-01-13T12:08:16;163335.00;;;8.50
68440;BMP180;55421;51.600;5.718;2023-01-13T12:11:30;162872.80;;;8.50
68440;BMP180;55421;51.600;5.718;2023-01-13T12:14:26;162056.00;;;8.50
68440;BMP180;55421;51.600;5.718;2023-01-13T12:16:56;160377.00;;;8.50
68440;BMP180;55421;51.600;5.718;2023-01-13T12:19:27;158489.20;;;8.50
68440;BMP180;55421;51.600;5.718;2023-01-13T12:22:28;157239.80;;;8.50
68440;BMP180;55421;51.600;5.718;2023-01-13T12:25:05;157639.00;;;8.48
68440;BMP180;55421;51.600;5.718;2023-01-13T12:27:59;156747.80;;;8.40
68440;BMP180;55421;51.600;5.718;2023-01-13T12:30:42;155340.20;;;8.40
68440;BMP180;55421;51.600;5.718;2023-01-13T12:42:16;152065.80;;;8.40
68440;BMP180;55421;51.600;5.718;2023-01-13T12:47:44;151356.00;;;8.40
68440;BMP180;55421;51.600;5.718;2023-01-13T12:52:49;149515.59;;;8.36
68440;BMP180;55421;51.600;5.718;2023-01-13T12:55:33;150160.00;;;8.40
68440;BMP180;55421;51.600;5.718;2023-01-13T13:00:57;149438.59;;;8.40
68440;BMP180;55421;51.600;5.718;2023-01-13T13:03:33;149077.41;;;8.40
68440;BMP180;55421;51.600;5.718;2023-01-13T13:06:18;148001.41;;;8.40
68440;BMP180;55421;51.600;5.718;2023-01-13T13:09:16;145419.80;;;8.40
68440;BMP180;55421;51.600;5.718;2023-01-13T13:11:47;144582.00;;;8.40
68440;BMP180;55421;51.600;5.718;2023-01-13T13:19:58;142178.41;;;8.42
68440;BMP180;55421;51.600;5.718;2023-01-13T13:30:26;132669.80;;;8.50
68440;BMP180;55421;51.600;5.718;2023-01-13T13:33:33;131508.00;;;8.50
68440;BMP180;55421;51.600;5.718;2023-01-13T13:36:33;130371.20;;;8.50
68440;BMP180;55421;51.600;5.718;2023-01-13T13:39:22;128807.60;;;8.50
68440;BMP180;55421;51.600;5.718;2023-01-13T13:42:25;129238.40;;;8.50
68440;BMP180;55421;51.600;5.718;2023-01-13T13:45:23;131368.80;;;8.40
68440;BMP180;55421;51.600;5.718;2023-01-13T13:48:29;132897.59;;;8.40
68440;BMP180;55421;51.600;5.718;2023-01-13T13:51:09;131715.00;;;8.40
68440;BMP180;55421;51.600;5.718;2023-01-13T13:53:41;135257.00;;;8.38
68440;BMP180;55421;51.600;5.718;2023-01-13T13:56:20;137016.59;;;8.40
68440;BMP180;55421;51.600;5.718;2023-01-13T13:58:48;138608.00;;;8.40
68440;BMP180;55421;51.600;5.718;2023-01-13T14:01:27;135132.80;;;8.40
68440;BMP180;55421;51.600;5.718;2023-01-13T14:04:16;134222.00;;;8.40
68440;BMP180;55421;51.600;5.718;2023-01-13T14:07:16;133571.20;;;8.40
68440;BMP180;55421;51.600;5.718;2023-01-13T14:09:51;136860.20;;;8.40
68440;BMP180;55421;51.600;5.718;2023-01-13T14:12:23;135545.20;;;8.40
68440;BMP180;55421;51.600;5.718;2023-01-13T14:14:51;136138.59;;;8.40
68440;BMP180;55421;51.600;5.718;2023-01-13T14:17:28;134427.20;;;8.40
68440;BMP180;55421;51.600;5.718;2023-01-13T14:20:10;134181.80;;;8.40
68440;BMP180;55421;51.600;5.718;2023-01-13T14:22:46;134835.41;;;8.50
68440;BMP180;55421;51.600;5.718;2023-01-13T14:28:21;133635.41;;;8.60
68440;BMP180;55421;51.600;5.718;2023-01-13T14:30:50;133638.59;;;8.60
68440;BMP180;55421;51.600;5.718;2023-01-13T14:33:22;132714.00;;;8.60
68440;BMP180;55421;51.600;5.718;2023-01-13T14:46:54;145756.80;;;8.50
68440;BMP180;55421;51.600;5.718;2023-01-13T14:49:42;146332.59;;;8.50
68440;BMP180;55421;51.600;5.718;2023-01-13T14:52:20;148952.80;;;8.50
68440;BMP180;55421;51.600;5.718;2023-01-13T14:54:53;149420.00;;;8.50
68440;BMP180;55421;51.600;5.718;2023-01-13T14:57:38;149437.80;;;8.50
68440;BMP180;55421;51.600;5.718;2023-01-13T15:08:01;150658.00;;;8.46
68440;BMP180;55421;51.600;5.718;2023-01-13T15:10:37;151188.59;;;8.48
68440;BMP180;55421;51.600;5.718;2023-01-13T15:13:32;151707.80;;;8.40
68440;BMP180;55421;51.600;5.718;2023-01-13T15:16:18;152202.80;;;8.40
68440;BMP180;55421;51.600;5.718;2023-01-13T15:18:46;152818.41;;;8.40
68440;BMP180;55421;51.600;5.718;2023-01-13T15:21:14;152560.41;;;8.40
68440;BMP180;55421;51.600;5.718;2023-01-13T15:23:41;151531.00;;;8.40
68440;BMP180;55421;51.600;5.718;2023-01-13T15:26:19;151128.41;;;8.40
68440;BMP180;55421;51.600;5.718;2023-01-13T15:28:47;151371.20;;;8.40
68440;BMP180;55421;51.600;5.718;2023-01-13T15:31:16;151526.00;;;8.40
68440;BMP180;55421;51.600;5.718;2023-01-13T15:33:43;151806.41;;;8.40
68440;BMP180;55421;51.600;5.718;2023-01-13T15:36:31;152119.00;;;8.40
68440;BMP180;55421;51.600;5.718;2023-01-13T15:38:59;152916.41;;;8.40
68440;BMP180;55421;51.600;5.718;2023-01-13T15:41:26;153133.59;;;8.40
68440;BMP180;55421;51.600;5.718;2023-01-13T15:44:13;153422.59;;;8.40
68440;BMP180;55421;51.600;5.718;2023-01-13T15:47:04;154333.59;;;8.40
68440;BMP180;55421;51.600;5.718;2023-01-13T15:49:45;154084.20;;;8.40
68440;BMP180;55421;51.600;5.718;2023-01-13T15:52:22;154901.59;;;8.40
68440;BMP180;55421;51.600;5.718;2023-01-13T15:54:50;155019.20;;;8.40
68440;BMP180;55421;51.600;5.718;2023-01-13T15:57:27;155438.00;;;8.40
68440;BMP180;55421;51.600;5.718;2023-01-13T15:59:57;155560.00;;;8.40
68440;BMP180;55421;51.600;5.718;2023-01-13T16:02:27;156162.59;;;8.40
68440;BMP180;55421;51.600;5.718;2023-01-13T16:04:56;155546.20;;;8.38
68440;BMP180;55421;51.600;5.718;2023-01-13T16:07:24;155641.80;;;8.32
68440;BMP180;55421;51.600;5.718;2023-01-13T16:09:51;156190.59;;;8.30
68440;BMP180;55421;51.600;5.718;2023-01-13T16:12:18;156241.00;;;8.30
68440;BMP180;55421;51.600;5.718;2023-01-13T16:14:45;156655.80;;;8.30
68440;BMP180;55421;51.600;5.718;2023-01-13T16:17:18;157709.80;;;8.30
68440;BMP180;55421;51.600;5.718;2023-01-13T16:19:45;157476.59;;;8.30
68440;BMP180;55421;51.600;5.718;2023-01-13T16:22:14;157504.41;;;8.30